首页
METAR-TAF:

METAR-TAF

机场 :

杰克逊, 密西西比州, 美国

纬度: 32-19-11N, 经度: 090-04-39W, 海拔: 105米

当前天气观测

该预报发布于28分钟前的03:23 UTC
风速4节,风向南转南东
温度 14°C
湿度 88%
气压 1017 hPa
能見度: 16.1公里
阴天层高于1400英尺

METAR: KJAN 170323Z 16004KT 10SM OVC014 14/12 A3004 RMK AO2 T01390117 $

时间: 21:51 (03:51 UTC)

预报

该预报发布于4小时和9分钟前的23:42 UTC
预报有效从17日的 00点(UTC)到 17日的 24点(UTC)
风速3节,风向东转东南
能見度: 10公里
阴天层高于5000英尺
从 17日的 0200点(UTC)
风速3节,风向东转东南
能見度: 10公里
多云层高于1500英尺
从 17日的 0500点(UTC)
风速3节,风向南转南东
能見度: 6.4公里
阴天层高于400英尺
轻雾
从 17日的 1700点(UTC)
风速8节,风向南转南东
能見度: 10公里
阴天层高于700英尺

TAF: KJAN 162342Z 1700/1724 12003KT P6SM OVC050 FM170200 12003KT P6SM BKN015 FM170500 15003KT 4SM BR OVC004 FM171700 16008KT P6SM OVC007

超过4000个机场的气象观测和天气预报(METAR&TAF报告)。

可查询的气象台以黄色和红色小点在地图上表示。

将鼠标移到小点上方,可查看气象台名称。

然后点击查看天气观测和预报。

如需切换地图:点击带黑十字的绿色按钮放大地图;点击带横线的绿色按钮缩小地图;或者点击绿色箭头查看邻近地区的地图。


METAR-TAF: